createdAt,value
2022-10-22T00:02:07.794Z,78.10
2022-10-22T00:04:37.185Z,78.25
2022-10-22T00:07:06.373Z,78.56
2022-10-22T00:09:35.395Z,78.68
2022-10-22T00:12:04.798Z,78.87
2022-10-22T00:14:35.252Z,78.76
2022-10-22T00:17:06.897Z,78.88
2022-10-22T00:19:40.819Z,78.64
2022-10-22T00:22:10.735Z,78.99
2022-10-22T00:24:41.222Z,78.79
2022-10-22T00:27:12.067Z,78.60
2022-10-22T00:29:42.550Z,78.53
2022-10-22T00:32:11.706Z,78.56
2022-10-22T00:34:40.669Z,78.94
2022-10-22T00:37:09.846Z,78.69
2022-10-22T00:39:38.851Z,78.87
2022-10-22T00:42:08.097Z,79.11
2022-10-22T00:45:09.503Z,78.88
2022-10-22T00:47:41.474Z,79.13
2022-10-22T00:50:15.571Z,78.85
2022-10-22T00:52:45.112Z,78.97
2022-10-22T00:55:15.359Z,79.24
2022-10-22T00:57:44.758Z,78.91
2022-10-22T01:00:16.183Z,79.09
2022-10-22T01:02:45.596Z,79.41
2022-10-22T01:05:14.737Z,78.99
2022-10-22T01:07:46.189Z,78.91
2022-10-22T01:10:25.620Z,79.02
2022-10-22T01:13:07.408Z,78.97
2022-10-22T01:15:46.916Z,79.19
2022-10-22T01:18:21.795Z,79.19
2022-10-22T01:21:11.323Z,79.44
2022-10-22T01:24:10.873Z,79.36
2022-10-22T01:26:54.247Z,79.50
2022-10-22T01:29:30.606Z,79.57
2022-10-22T01:32:02.846Z,79.59
2022-10-22T01:34:33.462Z,79.60
2022-10-22T01:37:03.956Z,79.63
2022-10-22T01:39:35.889Z,79.64
2022-10-22T01:42:04.958Z,79.42
2022-10-22T01:44:37.753Z,79.44
2022-10-22T01:47:22.483Z,79.26
2022-10-22T01:50:23.256Z,79.45
2022-10-22T01:53:08.664Z,79.32
2022-10-22T01:55:49.797Z,79.45
2022-10-22T01:58:29.946Z,79.33
2022-10-22T02:01:07.563Z,79.29
2022-10-22T02:03:41.882Z,79.25
2022-10-22T02:06:15.817Z,79.15
2022-10-22T02:08:46.294Z,79.37
2022-10-22T02:11:16.724Z,79.60
2022-10-22T02:13:49.664Z,79.59
2022-10-22T02:16:25.419Z,79.46
2022-10-22T02:18:57.844Z,79.64
2022-10-22T02:21:27.835Z,79.54
2022-10-22T02:23:57.125Z,79.72
2022-10-22T02:26:32.981Z,79.66
2022-10-22T02:29:06.752Z,79.76
2022-10-22T02:31:41.896Z,79.68
2022-10-22T02:34:15.231Z,79.60
2022-10-22T02:36:48.238Z,79.65
2022-10-22T02:39:20.336Z,79.77
2022-10-22T02:41:49.970Z,79.62
2022-10-22T02:44:22.888Z,79.74
2022-10-22T02:46:53.608Z,79.98
2022-10-22T02:49:22.563Z,79.74
2022-10-22T02:51:52.148Z,79.84
2022-10-22T02:54:21.066Z,79.87
2022-10-22T02:56:50.214Z,79.74
2022-10-22T02:59:19.141Z,79.86
2022-10-22T03:01:48.290Z,79.96
2022-10-22T03:04:18.632Z,79.98
2022-10-22T03:06:49.033Z,79.97
2022-10-22T03:09:21.301Z,80.05
2022-10-22T03:11:53.417Z,79.98
2022-10-22T03:14:22.465Z,79.78
2022-10-22T03:16:51.609Z,79.71
2022-10-22T03:19:21.932Z,79.87
2022-10-22T03:21:55.833Z,79.86
2022-10-22T03:24:29.789Z,79.64
2022-10-22T03:27:00.002Z,79.84
2022-10-22T03:29:30.366Z,79.88
2022-10-22T03:31:59.562Z,79.83
2022-10-22T03:34:29.888Z,79.95
2022-10-22T03:37:01.182Z,80.02
2022-10-22T03:39:33.323Z,79.93
2022-10-22T03:42:03.309Z,80.11
2022-10-22T03:44:32.937Z,80.32
2022-10-22T03:47:02.848Z,79.95
2022-10-22T03:49:33.829Z,79.82
2022-10-22T03:52:08.025Z,79.76
2022-10-22T03:57:13.241Z,79.75
2022-10-22T03:59:44.565Z,79.69
2022-10-22T04:02:14.903Z,79.65
2022-10-22T04:04:45.209Z,79.67
2022-10-22T04:07:14.347Z,79.74
2022-10-22T04:09:43.269Z,79.89
2022-10-22T04:12:12.400Z,80.00
2022-10-22T04:14:41.327Z,79.88
2022-10-22T04:17:10.466Z,79.76
2022-10-22T04:19:39.465Z,79.86
2022-10-22T04:22:09.993Z,79.84
2022-10-22T04:24:38.940Z,79.87
2022-10-22T04:27:08.101Z,79.85
2022-10-22T04:29:37.087Z,79.99
2022-10-22T04:32:06.460Z,79.97
2022-10-22T04:34:35.454Z,79.92
2022-10-22T04:37:04.888Z,80.18
2022-10-22T04:39:35.240Z,79.93
2022-10-22T04:42:04.895Z,80.13
2022-10-22T04:44:34.200Z,80.15
2022-10-22T04:47:03.331Z,80.63
2022-10-22T04:49:32.258Z,80.34
2022-10-22T04:52:01.388Z,80.34
2022-10-22T04:54:33.040Z,80.63
2022-10-22T04:57:03.895Z,80.44
2022-10-22T04:59:32.634Z,80.59
2022-10-22T05:02:01.769Z,80.60
2022-10-22T05:04:30.705Z,80.63
2022-10-22T05:06:59.896Z,80.58
2022-10-22T05:09:28.832Z,80.38
2022-10-22T05:11:58.014Z,80.44
2022-10-22T05:14:28.341Z,80.32
2022-10-22T05:16:57.491Z,80.47
2022-10-22T05:19:28.010Z,80.25
2022-10-22T05:21:59.282Z,80.36
2022-10-22T05:24:29.944Z,80.15
2022-10-22T05:27:00.919Z,80.14
2022-10-22T05:29:31.281Z,80.28
2022-10-22T05:32:00.455Z,80.50
2022-10-22T05:34:29.422Z,80.37
2022-10-22T05:36:58.571Z,80.32
2022-10-22T05:39:27.740Z,80.14
2022-10-22T05:41:56.926Z,79.91
2022-10-22T05:44:25.855Z,80.42
2022-10-22T05:46:56.513Z,80.76
2022-10-22T05:49:25.526Z,80.83
2022-10-22T05:51:54.700Z,80.78
2022-10-22T05:54:23.749Z,80.59
2022-10-22T05:56:52.889Z,80.63
2022-10-22T05:59:21.837Z,80.89
2022-10-22T06:01:51.123Z,80.67
2022-10-22T06:04:21.643Z,80.40
2022-10-22T06:06:53.840Z,80.35
2022-10-22T06:09:26.060Z,80.40
2022-10-22T06:11:56.009Z,80.63
2022-10-22T06:14:25.773Z,80.60
2022-10-22T06:16:55.190Z,80.72
2022-10-22T06:19:26.859Z,80.49
2022-10-22T06:21:56.042Z,80.55
2022-10-22T06:24:25.029Z,80.39
2022-10-22T06:26:54.769Z,80.47
2022-10-22T06:29:23.980Z,80.83
2022-10-22T06:31:53.134Z,80.78
2022-10-22T06:34:22.100Z,80.75
2022-10-22T06:36:52.632Z,80.78
2022-10-22T06:39:21.341Z,80.66
2022-10-22T06:41:50.521Z,80.57
2022-10-22T06:44:20.738Z,80.64
2022-10-22T06:46:52.103Z,80.73
2022-10-22T06:49:22.113Z,80.65
2022-10-22T06:51:53.066Z,80.61
2022-10-22T06:54:22.541Z,80.90
2022-10-22T06:56:51.742Z,80.74
2022-10-22T06:59:20.718Z,80.67
2022-10-22T07:01:50.021Z,80.80
2022-10-22T07:04:19.043Z,80.88
2022-10-22T07:06:48.211Z,80.76
2022-10-22T07:11:52.583Z,80.96
2022-10-22T07:14:21.613Z,80.79
2022-10-22T07:16:50.759Z,80.90
2022-10-22T07:19:19.715Z,81.06
2022-10-22T07:21:48.890Z,81.19
2022-10-22T07:24:19.267Z,81.13
2022-10-22T07:26:48.529Z,81.23
2022-10-22T07:29:17.594Z,81.44
2022-10-22T07:31:47.109Z,81.34
2022-10-22T07:34:16.382Z,81.42
2022-10-22T07:36:45.627Z,81.56
2022-10-22T07:39:14.612Z,81.37
2022-10-22T07:41:45.197Z,81.24
2022-10-22T07:44:14.378Z,80.98
2022-10-22T07:46:48.033Z,81.39
2022-10-22T07:49:18.070Z,81.47
2022-10-22T07:51:47.321Z,81.36
2022-10-22T07:54:16.697Z,81.41
2022-10-22T07:56:47.268Z,81.36
2022-10-22T07:59:16.412Z,81.53
2022-10-22T08:01:46.920Z,81.52
2022-10-22T08:04:16.020Z,81.34
2022-10-22T08:06:47.224Z,81.66
2022-10-22T08:09:17.036Z,81.57
2022-10-22T08:11:47.736Z,81.37
2022-10-22T08:14:17.276Z,81.84
2022-10-22T08:16:46.443Z,81.88
2022-10-22T08:19:18.814Z,81.97
2022-10-22T08:21:48.089Z,81.89
2022-10-22T08:24:17.069Z,81.94
2022-10-22T08:26:47.643Z,82.18
2022-10-22T08:29:16.903Z,81.91
2022-10-22T08:31:54.383Z,81.87
2022-10-22T08:34:25.004Z,81.43
2022-10-22T08:36:54.206Z,81.48
2022-10-22T08:39:23.688Z,81.31
2022-10-22T08:42:29.493Z,81.61
2022-10-22T08:45:16.996Z,81.52
2022-10-22T08:48:10.669Z,81.50
2022-10-22T08:50:42.177Z,81.37
2022-10-22T08:53:16.685Z,81.48
2022-10-22T08:55:46.129Z,81.80
2022-10-22T08:58:24.020Z,81.66
2022-10-22T09:00:59.875Z,81.81
2022-10-22T09:03:51.520Z,82.07
2022-10-22T09:06:23.728Z,82.06
2022-10-22T09:08:55.038Z,81.89
2022-10-22T09:11:29.429Z,82.17
2022-10-22T09:14:08.595Z,82.09
2022-10-22T09:16:44.162Z,82.12
2022-10-22T09:19:22.681Z,81.94
2022-10-22T09:22:02.946Z,82.21
2022-10-22T09:24:38.580Z,82.18
2022-10-22T09:27:17.427Z,82.28
2022-10-22T09:29:49.192Z,81.97
2022-10-22T09:32:18.719Z,82.58
2022-10-22T09:34:49.018Z,82.60
2022-10-22T09:37:20.114Z,82.71
2022-10-22T09:39:52.624Z,82.53
2022-10-22T09:42:23.357Z,82.80
2022-10-22T09:44:57.483Z,83.03
2022-10-22T09:47:43.718Z,82.63
2022-10-22T09:50:26.465Z,83.24
2022-10-22T09:53:06.441Z,83.00
2022-10-22T09:55:35.614Z,83.32
2022-10-22T09:58:04.669Z,83.18
2022-10-22T10:04:09.344Z,83.49
2022-10-22T10:06:56.902Z,83.46
2022-10-22T10:09:59.352Z,83.24
2022-10-22T10:16:57.945Z,83.49
2022-10-22T10:19:47.052Z,83.85
2022-10-22T10:22:27.133Z,83.75
2022-10-22T10:25:03.584Z,83.62
2022-10-22T10:27:41.531Z,84.02
2022-10-22T10:30:34.302Z,84.11
2022-10-22T10:36:28.616Z,83.82
2022-10-22T10:39:06.100Z,83.90
2022-10-22T10:42:00.071Z,84.38
2022-10-22T10:45:01.441Z,84.12
2022-10-22T10:47:52.500Z,84.08
2022-10-22T10:50:30.574Z,84.62
2022-10-22T10:53:11.743Z,84.22
2022-10-22T10:55:53.557Z,84.66
2022-10-22T10:58:32.987Z,84.38
2022-10-22T11:01:11.926Z,84.52
2022-10-22T11:04:07.525Z,84.85
2022-10-22T11:06:40.276Z,84.73
2022-10-22T11:09:24.544Z,84.64
2022-10-22T11:11:56.825Z,84.97
2022-10-22T11:14:33.002Z,85.09
2022-10-22T11:17:06.202Z,84.69
2022-10-22T11:19:51.584Z,84.85
2022-10-22T11:22:30.669Z,85.25
2022-10-22T11:25:06.941Z,84.92
2022-10-22T11:27:41.346Z,85.44
2022-10-22T11:30:16.465Z,85.10
2022-10-22T11:32:48.398Z,85.35
2022-10-22T11:35:25.566Z,85.47
2022-10-22T11:37:58.095Z,85.37
2022-10-22T11:41:06.143Z,85.29
2022-10-22T11:43:36.785Z,85.43
2022-10-22T11:46:26.887Z,85.40
2022-10-22T11:49:17.874Z,85.79
2022-10-22T11:51:48.048Z,85.88
2022-10-22T11:54:33.140Z,85.46
2022-10-22T11:57:24.411Z,85.61
2022-10-22T12:00:00.699Z,85.89
2022-10-22T12:02:43.955Z,85.79
2022-10-22T12:05:43.681Z,85.88
2022-10-22T12:08:34.490Z,85.99
2022-10-22T12:11:15.438Z,86.08
2022-10-22T12:14:02.645Z,85.99
2022-10-22T12:19:33.704Z,86.23
2022-10-22T12:22:18.184Z,85.98
2022-10-22T12:24:52.408Z,86.63
2022-10-22T12:27:25.653Z,86.55
2022-10-22T12:29:59.259Z,86.69
2022-10-22T12:32:46.943Z,86.62
2022-10-22T12:35:47.124Z,86.76
2022-10-22T12:38:20.243Z,86.66
2022-10-22T12:40:51.266Z,86.80
2022-10-22T12:43:26.475Z,86.44
2022-10-22T12:45:57.663Z,86.60
2022-10-22T12:48:29.505Z,86.70
2022-10-22T12:51:01.610Z,86.94
2022-10-22T12:53:37.871Z,86.52
2022-10-22T12:56:11.652Z,86.97
2022-10-22T12:58:56.614Z,87.28
2022-10-22T13:01:29.170Z,86.97
2022-10-22T13:04:08.278Z,87.30
2022-10-22T13:06:37.688Z,87.30
2022-10-22T13:09:17.567Z,87.46
2022-10-22T13:11:53.006Z,87.55
2022-10-22T13:14:29.140Z,87.81
2022-10-22T13:17:14.802Z,87.70
2022-10-22T13:19:48.323Z,87.03
2022-10-22T13:22:33.296Z,87.41
2022-10-22T13:25:20.490Z,87.42
2022-10-22T13:27:51.530Z,87.15
2022-10-22T13:30:25.121Z,87.40
2022-10-22T13:32:57.259Z,87.33
2022-10-22T13:35:29.163Z,87.59
2022-10-22T13:37:58.146Z,87.57
2022-10-22T13:40:27.828Z,87.37
2022-10-22T13:42:56.755Z,87.47
2022-10-22T13:45:27.602Z,87.23
2022-10-22T13:47:57.136Z,87.31
2022-10-22T13:50:26.533Z,87.15
2022-10-22T13:52:57.578Z,87.31
2022-10-22T13:55:29.268Z,86.98
2022-10-22T13:58:01.714Z,86.92
2022-10-22T14:00:32.407Z,87.02
2022-10-22T14:03:01.839Z,86.75
2022-10-22T14:05:32.576Z,86.97
2022-10-22T14:08:02.330Z,86.83
2022-10-22T14:10:31.685Z,87.03
2022-10-22T14:13:00.624Z,87.14
2022-10-22T14:15:32.273Z,86.97
2022-10-22T14:18:01.973Z,87.18
2022-10-22T14:20:33.975Z,86.84
2022-10-22T14:23:13.066Z,87.14
2022-10-22T14:25:42.721Z,87.22
2022-10-22T14:28:12.864Z,87.12
2022-10-22T14:30:43.464Z,87.00
2022-10-22T14:33:16.542Z,87.02
2022-10-22T14:35:45.982Z,87.35
2022-10-22T14:38:14.942Z,87.22
2022-10-22T14:40:44.959Z,87.30
2022-10-22T14:43:15.905Z,87.42
2022-10-22T14:45:46.491Z,87.73
2022-10-22T14:48:16.545Z,87.42
2022-10-22T14:50:47.114Z,87.72
2022-10-22T14:53:16.743Z,87.56
2022-10-22T14:55:47.435Z,87.70
2022-10-22T14:58:16.843Z,87.48
2022-10-22T15:00:47.450Z,87.51
2022-10-22T15:03:16.438Z,87.98
2022-10-22T15:05:46.620Z,87.97
2022-10-22T15:08:16.623Z,88.00
2022-10-22T15:10:45.593Z,88.36
2022-10-22T15:13:14.563Z,88.14
2022-10-22T15:15:43.828Z,88.15
2022-10-22T15:18:14.220Z,88.39
2022-10-22T15:20:43.368Z,88.36
2022-10-22T15:23:12.356Z,89.04
2022-10-22T15:25:45.460Z,88.54
2022-10-22T15:28:14.590Z,88.81
2022-10-22T15:30:43.819Z,89.20
2022-10-22T15:33:14.258Z,89.20
2022-10-22T15:35:43.415Z,88.82
2022-10-22T15:38:12.407Z,88.85
2022-10-22T15:40:41.641Z,89.09
2022-10-22T15:43:10.859Z,89.02
2022-10-22T15:45:40.136Z,89.02
2022-10-22T15:48:10.481Z,89.19
2022-10-22T15:50:42.922Z,88.77
2022-10-22T15:53:12.477Z,88.93
2022-10-22T15:55:41.680Z,89.25
2022-10-22T15:58:10.814Z,88.88
2022-10-22T16:00:40.272Z,89.09
2022-10-22T16:03:09.687Z,89.13
2022-10-22T16:05:54.568Z,89.19
2022-10-22T16:08:23.932Z,88.94
2022-10-22T16:10:57.287Z,89.12
2022-10-22T16:13:27.507Z,89.05
2022-10-22T16:15:57.112Z,88.98
2022-10-22T16:18:28.618Z,89.08
2022-10-22T16:20:59.137Z,89.04
2022-10-22T16:23:33.507Z,89.00
2022-10-22T16:26:06.590Z,89.00
2022-10-22T16:28:41.443Z,89.31
2022-10-22T16:31:12.770Z,89.28
2022-10-22T16:33:47.741Z,89.08
2022-10-22T16:36:23.043Z,89.03
2022-10-22T16:38:52.217Z,89.28
2022-10-22T16:41:23.712Z,89.50
2022-10-22T16:43:55.858Z,89.48
2022-10-22T16:46:25.654Z,89.72
2022-10-22T16:48:55.268Z,90.05
2022-10-22T16:51:27.931Z,90.49
2022-10-22T16:53:59.214Z,90.61
2022-10-22T16:56:28.813Z,90.48
2022-10-22T16:58:58.887Z,90.08
2022-10-22T17:01:29.250Z,90.38
2022-10-22T17:04:00.435Z,90.97
2022-10-22T17:06:31.137Z,90.64
2022-10-22T17:09:00.253Z,90.19
2022-10-22T17:11:34.813Z,90.20
2022-10-22T17:14:04.905Z,90.56
2022-10-22T17:16:34.168Z,90.22
2022-10-22T17:19:05.410Z,90.32
2022-10-22T17:21:35.984Z,90.35
2022-10-22T17:24:05.168Z,90.29
2022-10-22T17:26:34.700Z,90.14
2022-10-22T17:29:04.198Z,90.35
2022-10-22T17:31:37.222Z,90.22
2022-10-22T17:34:08.185Z,90.29
2022-10-22T17:36:39.146Z,90.40
2022-10-22T17:39:09.051Z,90.29
2022-10-22T17:41:39.098Z,90.13
2022-10-22T17:44:09.974Z,90.22
2022-10-22T17:46:39.726Z,90.29
2022-10-22T17:49:14.341Z,90.39
2022-10-22T17:51:44.934Z,90.01
2022-10-22T17:54:14.957Z,90.25
2022-10-22T17:56:44.182Z,90.24
2022-10-22T17:59:17.120Z,90.11
2022-10-22T18:01:47.732Z,90.20
2022-10-22T18:04:19.519Z,89.98
2022-10-22T18:06:50.709Z,90.19
2022-10-22T18:09:20.563Z,90.36
2022-10-22T18:11:50.830Z,90.48
2022-10-22T18:14:21.362Z,90.52
2022-10-22T18:16:51.061Z,90.21
2022-10-22T18:19:23.195Z,90.56
2022-10-22T18:21:53.827Z,90.68
2022-10-22T18:24:23.081Z,90.49
2022-10-22T18:26:53.106Z,90.41
2022-10-22T18:29:25.086Z,90.70
2022-10-22T18:31:54.346Z,90.58
2022-10-22T18:34:24.075Z,90.67
2022-10-22T18:36:56.209Z,90.72
2022-10-22T18:39:25.492Z,90.84
2022-10-22T18:41:54.866Z,90.63
2022-10-22T18:44:25.777Z,90.53
2022-10-22T18:46:54.966Z,90.71
2022-10-22T18:49:23.917Z,90.81
2022-10-22T18:51:54.530Z,90.60
2022-10-22T18:54:24.652Z,90.98
2022-10-22T18:57:00.604Z,91.25
2022-10-22T18:59:31.330Z,91.75
2022-10-22T19:02:00.673Z,91.93
2022-10-22T19:04:36.793Z,92.02
2022-10-22T19:09:38.448Z,91.69
2022-10-22T19:12:09.017Z,91.87
2022-10-22T19:14:38.318Z,92.02
2022-10-22T19:17:07.530Z,91.82
2022-10-22T19:19:36.869Z,91.66
2022-10-22T19:22:07.565Z,91.73
2022-10-22T19:24:36.713Z,91.71
2022-10-22T19:27:06.095Z,91.62
2022-10-22T19:29:35.212Z,91.65
2022-10-22T19:32:04.900Z,91.71
2022-10-22T19:34:33.976Z,92.15
2022-10-22T19:37:03.555Z,91.62
2022-10-22T19:39:34.134Z,91.50
2022-10-22T19:42:04.269Z,91.40
2022-10-22T19:44:33.364Z,91.64
2022-10-22T19:47:02.573Z,91.08
2022-10-22T19:49:31.632Z,91.14
2022-10-22T19:52:00.881Z,91.19
2022-10-22T19:54:29.906Z,91.18
2022-10-22T19:57:00.659Z,91.08
2022-10-22T19:59:31.496Z,91.06
2022-10-22T20:02:01.836Z,90.77
2022-10-22T20:04:31.199Z,90.78
2022-10-22T20:07:00.479Z,91.03
2022-10-22T20:09:29.449Z,90.76
2022-10-22T20:12:00.062Z,90.83
2022-10-22T20:14:29.146Z,90.88
2022-10-22T20:16:58.356Z,90.77
2022-10-22T20:19:29.253Z,90.78
2022-10-22T20:24:32.859Z,90.70
2022-10-22T20:27:03.453Z,90.75
2022-10-22T20:29:32.436Z,90.48
2022-10-22T20:32:03.270Z,90.62
2022-10-22T20:34:34.930Z,90.97
2022-10-22T20:37:04.339Z,90.87
2022-10-22T20:39:33.347Z,90.61
2022-10-22T20:42:04.052Z,90.73
2022-10-22T20:44:33.164Z,90.77
2022-10-22T20:47:02.565Z,90.52
2022-10-22T20:49:32.910Z,90.44
2022-10-22T20:52:02.226Z,90.41
2022-10-22T20:54:31.292Z,90.28
2022-10-22T20:57:02.078Z,90.22
2022-10-22T20:59:34.815Z,90.19
2022-10-22T21:02:04.345Z,90.00
2022-10-22T21:04:34.760Z,89.81
2022-10-22T21:07:04.042Z,90.01
2022-10-22T21:09:34.671Z,89.94
2022-10-22T21:12:05.043Z,89.68
2022-10-22T21:14:35.277Z,89.70
2022-10-22T21:17:04.408Z,89.74
2022-10-22T21:19:33.377Z,89.76
2022-10-22T21:22:02.597Z,89.43
2022-10-22T21:24:32.120Z,89.47
2022-10-22T21:27:02.600Z,89.44
2022-10-22T21:29:32.071Z,89.58
2022-10-22T21:32:02.975Z,89.60
2022-10-22T21:34:38.162Z,89.43
2022-10-22T21:37:08.324Z,89.59
2022-10-22T21:39:41.204Z,89.67
2022-10-22T21:42:11.624Z,89.70
2022-10-22T21:44:40.722Z,89.53
2022-10-22T21:47:11.501Z,89.31
2022-10-22T21:49:40.656Z,89.38
2022-10-22T21:52:09.859Z,89.33
2022-10-22T21:54:39.856Z,89.55
2022-10-22T21:57:09.140Z,89.10
2022-10-22T21:59:39.712Z,89.13
2022-10-22T22:02:10.120Z,89.36
2022-10-22T22:04:39.004Z,89.25
2022-10-22T22:07:08.215Z,89.46
2022-10-22T22:09:37.429Z,89.51
2022-10-22T22:12:06.841Z,89.21
2022-10-22T22:14:36.614Z,89.22
2022-10-22T22:17:05.907Z,89.29
2022-10-22T22:19:36.404Z,89.14
2022-10-22T22:22:05.699Z,89.13
2022-10-22T22:24:35.960Z,89.15
2022-10-22T22:27:05.401Z,88.89
2022-10-22T22:29:34.837Z,89.10
2022-10-22T22:32:04.090Z,88.87
2022-10-22T22:34:33.061Z,88.96
2022-10-22T22:37:03.648Z,88.74
2022-10-22T22:39:32.810Z,88.76
2022-10-22T22:42:01.978Z,88.85
2022-10-22T22:44:30.977Z,88.69
2022-10-22T22:47:16.663Z,88.63
2022-10-22T22:49:45.879Z,88.58
2022-10-22T22:52:16.483Z,88.68
2022-10-22T22:54:45.643Z,88.87
2022-10-22T22:57:15.954Z,88.95
2022-10-22T22:59:45.050Z,88.99
2022-10-22T23:02:15.498Z,88.64
2022-10-22T23:04:44.404Z,88.89
2022-10-22T23:07:15.187Z,88.83
2022-10-22T23:09:44.185Z,88.74
2022-10-22T23:12:13.700Z,88.82
2022-10-22T23:14:42.686Z,88.79
2022-10-22T23:17:12.033Z,88.57
2022-10-22T23:19:41.059Z,88.67
2022-10-22T23:22:10.467Z,88.77
2022-10-22T23:24:41.460Z,88.97
2022-10-22T23:27:12.196Z,88.79
2022-10-22T23:29:41.339Z,88.84
2022-10-22T23:32:15.295Z,88.61
2022-10-22T23:34:44.443Z,88.86
2022-10-22T23:37:14.245Z,88.41
2022-10-22T23:39:44.628Z,88.57
2022-10-22T23:42:13.865Z,88.32
2022-10-22T23:44:43.131Z,88.28
2022-10-22T23:47:12.353Z,88.15
2022-10-22T23:49:41.374Z,88.22
2022-10-22T23:52:10.572Z,88.08
2022-10-22T23:54:39.568Z,88.25
2022-10-22T23:57:10.235Z,88.04
2022-10-22T23:59:39.379Z,88.26
